Time;durP1;ratioP1;P1;durP2;ratioP2;P2;SDS_P1;SDS_P2;PMS_P1;PMS_P2;Temp;Humidity;BMP_temperature;BMP_pressure;BME280_temperature;BME280_humidity;BME280_pressure;Samples;Min_cycle;Max_cycle;Signal;HPM_P1;HPM_P2
2022/04/02 00:00:02;;;;;;;;;;;;;;;4.98;59.05;100261.63;6110275;23;7079;-75
2022/04/02 00:02:28;;;;;;;;;;;;;;;4.98;59.25;100259.09;6087018;23;6965;-75
2022/04/02 00:04:53;;;;;;;;;;;;;;;4.99;58.83;100260.84;6110097;23;6810;-75
2022/04/02 00:07:19;;;;;;;;;;;;;;;4.99;59.18;100254.88;6111774;23;6925;-75
2022/04/02 00:09:45;;;;;;;;;;;;;;;5.00;59.66;100262.59;6114215;23;6786;-75
2022/04/02 00:12:10;;;;;;;;;;;;;;;5.00;58.97;100267.69;6113845;23;7064;-75
2022/04/02 00:14:36;;;;;;;;;;;;;;;5.02;59.24;100269.44;6112611;23;6943;-75
2022/04/02 00:17:02;;;;;;;;;;;;;;;5.02;59.52;100265.22;6062051;23;7078;-75
2022/04/02 00:19:30;;;;;;;;;;;;;;;5.01;59.32;100276.16;6136957;23;6775;-75
2022/04/02 00:21:56;;;;;;;;;;;;;;;5.02;58.92;100270.31;6109082;23;7020;-75
2022/04/02 00:24:22;;;;;;;;;;;;;;;5.02;58.65;100269.44;6112109;23;7253;-75
2022/04/02 00:26:47;;;;;;;;;;;;;;;5.02;58.81;100280.47;6087665;23;6866;-75
2022/04/02 00:29:13;;;;;;;;;;;;;;;5.02;59.20;100280.47;6085440;23;6977;-75
2022/04/02 00:31:40;;;;;;;;;;;;;;;5.02;58.93;100264.38;6132557;23;6770;-75
2022/04/02 00:34:07;;;;;;;;;;;;;;;5.02;59.67;100270.31;6111311;23;7075;-75
2022/04/02 00:36:37;;;;;;;;;;;;;;;5.03;58.91;100268.66;6112036;23;6783;-75
2022/04/02 00:39:08;;;;;;;;;;;;;;;5.04;58.78;100278.03;6111395;23;6794;-75
2022/04/02 00:41:34;;;;;;;;;;;;;;;5.03;59.51;100278.81;6111443;23;7036;-75
2022/04/02 00:44:12;;;;;;;;;;;;;;;5.03;59.55;100271.22;6112052;23;6779;-75
2022/04/02 00:46:41;;;;;;;;;;;;;;;5.02;59.58;100280.47;6112864;23;6779;-75
2022/04/02 00:49:09;;;;;;;;;;;;;;;5.00;58.85;100267.69;6088391;23;7271;-75
2022/04/02 00:51:41;;;;;;;;;;;;;;;5.01;59.02;100268.56;6111747;23;7052;-75
2022/04/02 00:54:13;;;;;;;;;;;;;;;5.01;59.50;100268.56;6088122;23;6960;-74
2022/04/02 00:56:40;;;;;;;;;;;;;;;4.99;58.85;100271.00;6113472;23;6787;-75
2022/04/02 00:59:08;;;;;;;;;;;;;;;4.99;59.53;100263.38;6086601;23;6994;-75
2022/04/02 01:01:35;;;;;;;;;;;;;;;4.99;58.87;100272.66;6086683;23;6787;-75
2022/04/02 01:04:02;;;;;;;;;;;;;;;4.98;59.11;100269.25;6108979;23;6787;-75
2022/04/02 01:06:31;;;;;;;;;;;;;;;4.99;59.60;100262.50;6113055;23;7145;-75
2022/04/02 01:08:57;;;;;;;;;;;;;;;4.99;58.95;100270.09;6112427;23;6782;-75
2022/04/02 01:11:23;;;;;;;;;;;;;;;4.99;59.59;100272.66;6113674;23;6783;-75
2022/04/02 01:13:49;;;;;;;;;;;;;;;5.00;58.63;100267.69;6087995;23;7000;-75
2022/04/02 01:16:15;;;;;;;;;;;;;;;4.98;59.14;100275.97;6086324;23;6798;-75
2022/04/02 01:18:41;;;;;;;;;;;;;;;5.00;58.71;100264.25;6111082;23;7047;-75
2022/04/02 01:21:06;;;;;;;;;;;;;;;4.97;59.27;100276.75;6085595;23;7096;-75
2022/04/02 01:23:32;;;;;;;;;;;;;;;4.96;58.57;100280.94;6111792;23;6778;-75
2022/04/02 01:26:00;;;;;;;;;;;;;;;4.96;58.55;100275.00;6110304;23;6775;-75
2022/04/02 01:28:33;;;;;;;;;;;;;;;4.94;59.51;100274.00;6086897;23;7054;-75
2022/04/02 01:31:07;;;;;;;;;;;;;;;4.93;59.52;100268.03;6112539;23;7172;-75
2022/04/02 01:33:35;;;;;;;;;;;;;;;4.95;59.03;100273.22;6134234;23;6775;-75
2022/04/02 01:36:04;;;;;;;;;;;;;;;4.94;59.03;100266.38;6086490;23;7086;-75
2022/04/02 01:38:30;;;;;;;;;;;;;;;4.95;58.87;100268.16;6112961;23;6787;-75
2022/04/02 01:40:57;;;;;;;;;;;;;;;4.94;58.79;100264.72;6108903;23;6880;-75
2022/04/02 01:43:24;;;;;;;;;;;;;;;4.95;59.55;100266.47;6109931;23;7044;-75
2022/04/02 01:45:57;;;;;;;;;;;;;;;4.96;59.22;100272.44;6111742;23;6782;-75
2022/04/02 01:48:23;;;;;;;;;;;;;;;4.95;58.79;100271.56;6111245;23;7855;-75
2022/04/02 01:50:49;;;;;;;;;;;;;;;4.96;59.44;100272.44;6086471;23;7994;-75
2022/04/02 01:53:17;;;;;;;;;;;;;;;4.95;58.68;100279.19;6136381;23;6796;-75
2022/04/02 01:55:42;;;;;;;;;;;;;;;4.94;59.06;100276.56;6112163;23;6791;-75
2022/04/02 01:58:08;;;;;;;;;;;;;;;4.93;58.76;100275.66;6112982;23;6774;-75
2022/04/02 02:00:34;;;;;;;;;;;;;;;4.93;59.37;100282.41;6112190;23;6774;-75
2022/04/02 02:03:00;;;;;;;;;;;;;;;4.92;58.90;100281.50;6117277;23;7043;-75
2022/04/02 02:05:26;;;;;;;;;;;;;;;4.92;58.92;100286.59;6116098;23;6822;-75
2022/04/02 02:07:53;;;;;;;;;;;;;;;4.92;59.28;100288.25;6093437;23;8056;-75
2022/04/02 02:10:20;;;;;;;;;;;;;;;4.91;58.79;100282.28;6116897;23;7967;-75
2022/04/02 02:12:46;;;;;;;;;;;;;;;4.92;59.36;100290.78;6091067;23;6923;-75
2022/04/02 02:15:16;;;;;;;;;;;;;;;4.91;59.20;100282.28;6115592;23;7301;-75
2022/04/02 02:17:49;;;;;;;;;;;;;;;4.91;58.64;100284.84;6118903;23;6974;-75
2022/04/02 02:20:17;;;;;;;;;;;;;;;4.90;59.51;100292.34;6140499;23;7813;-75
2022/04/02 02:22:45;;;;;;;;;;;;;;;4.91;58.54;100291.56;6115262;23;6779;-75
2022/04/02 02:25:14;;;;;;;;;;;;;;;4.89;59.62;100293.13;6116409;23;6878;-75
2022/04/02 02:27:42;;;;;;;;;;;;;;;4.89;58.99;100304.19;6092835;23;7133;-75
2022/04/02 02:30:12;;;;;;;;;;;;;;;4.85;58.75;100292.03;6142829;23;6786;-75
2022/04/02 02:32:39;;;;;;;;;;;;;;;4.85;59.05;100298.00;6117247;23;6943;-75
2022/04/02 02:38:11;;;;;;;;;;;;;;;4.84;59.27;100300.41;6117672;23;6882;-75
2022/04/02 02:40:39;;;;;;;;;;;;;;;4.81;59.18;100305.28;6117316;23;6866;-75
2022/04/02 02:43:07;;;;;;;;;;;;;;;4.80;58.71;100299.31;6114022;23;6881;-75
2022/04/02 02:45:34;;;;;;;;;;;;;;;4.80;58.82;100309.47;6118149;23;6779;-75
2022/04/02 02:48:02;;;;;;;;;;;;;;;4.80;58.61;100309.47;6117293;23;6953;-76
2022/04/02 02:50:29;;;;;;;;;;;;;;;4.79;58.57;100312.78;6116661;23;6782;-76
2022/04/02 02:52:54;;;;;;;;;;;;;;;4.79;59.13;100311.94;6116821;23;6886;-76
2022/04/02 02:55:21;;;;;;;;;;;;;;;4.80;58.89;100316.22;6118474;23;6854;-77
2022/04/02 02:57:47;;;;;;;;;;;;;;;4.78;59.08;100311.03;6116575;23;7222;-77
2022/04/02 03:00:16;;;;;;;;;;;;;;;4.76;59.04;100312.59;6115640;23;7730;-77
2022/04/02 03:02:42;;;;;;;;;;;;;;;4.76;58.85;100311.69;6112684;23;7424;-77
2022/04/02 03:05:14;;;;;;;;;;;;;;;4.74;58.83;100309.06;6112822;23;6816;-77
2022/04/02 03:07:48;;;;;;;;;;;;;;;4.73;59.22;100304.72;6114114;23;8023;-77
2022/04/02 03:10:23;;;;;;;;;;;;;;;4.73;58.86;100310.72;6111280;23;6994;-77
2022/04/02 03:12:53;;;;;;;;;;;;;;;4.73;58.57;100309.81;6112300;23;7050;-77
2022/04/02 03:15:20;;;;;;;;;;;;;;;4.72;58.81;100314.03;6111808;23;7051;-77
2022/04/02 03:17:50;;;;;;;;;;;;;;;4.75;59.14;100305.75;6113274;23;6790;-77
2022/04/02 03:20:19;;;;;;;;;;;;;;;4.75;59.25;100308.28;6112064;23;6983;-77
2022/04/02 03:22:48;;;;;;;;;;;;;;;4.74;58.96;100316.69;6112306;23;6782;-76
2022/04/02 03:25:23;;;;;;;;;;;;;;;4.76;59.12;100317.66;6089224;23;6943;-76
2022/04/02 03:27:49;;;;;;;;;;;;;;;4.76;58.66;100320.22;6114398;23;6929;-76
2022/04/02 03:30:19;;;;;;;;;;;;;;;4.77;59.00;100318.53;6112040;23;6783;-76
2022/04/02 03:32:46;;;;;;;;;;;;;;;4.77;58.34;100318.53;6112020;23;6993;-76
2022/04/02 03:35:14;;;;;;;;;;;;;;;4.77;58.73;100321.06;6112786;23;6783;-77
2022/04/02 03:37:43;;;;;;;;;;;;;;;4.78;58.15;100323.72;6112248;23;7772;-77
2022/04/02 03:40:15;;;;;;;;;;;;;;;4.78;59.11;100322.84;6111876;23;6786;-76
2022/04/02 03:42:44;;;;;;;;;;;;;;;4.76;58.57;100320.22;6111515;23;7001;-76
2022/04/02 03:45:14;;;;;;;;;;;;;;;4.77;58.45;100318.53;6111965;23;6992;-76
2022/04/02 03:47:40;;;;;;;;;;;;;;;4.77;58.33;100324.50;6112898;23;7006;-76
2022/04/02 03:50:07;;;;;;;;;;;;;;;4.77;58.16;100324.50;6112458;23;6871;-77
2022/04/02 03:52:33;;;;;;;;;;;;;;;4.77;58.05;100321.97;6109441;23;6950;-76
2022/04/02 03:54:59;;;;;;;;;;;;;;;4.78;58.76;100325.38;6086208;23;6852;-76
2022/04/02 03:57:25;;;;;;;;;;;;;;;4.78;58.77;100325.38;6111767;23;6790;-76
2022/04/02 03:59:50;;;;;;;;;;;;;;;4.78;58.09;100318.66;6112643;23;6771;-76
2022/04/02 04:02:17;;;;;;;;;;;;;;;4.78;57.72;100323.72;6087167;23;7000;-75
2022/04/02 04:04:43;;;;;;;;;;;;;;;4.79;57.93;100325.50;6108870;23;6903;-76
2022/04/02 04:07:09;;;;;;;;;;;;;;;4.80;58.54;100327.25;6112284;23;6782;-76
2022/04/02 04:09:37;;;;;;;;;;;;;;;4.79;58.51;100327.16;6112450;23;7247;-76
2022/04/02 04:12:03;;;;;;;;;;;;;;;4.80;58.32;100326.38;6088989;23;6880;-76
2022/04/02 04:14:29;;;;;;;;;;;;;;;4.79;58.19;100338.19;6112640;23;6782;-75
2022/04/02 04:16:55;;;;;;;;;;;;;;;4.79;58.34;100332.25;6114265;23;6774;-76
2022/04/02 04:19:22;;;;;;;;;;;;;;;4.79;57.69;100335.66;6112780;23;7993;-76
2022/04/02 04:21:48;;;;;;;;;;;;;;;4.79;57.79;100333.09;6112278;23;7916;-76
2022/04/02 04:24:15;;;;;;;;;;;;;;;4.80;57.47;100334.00;6137183;23;6847;-76
2022/04/02 04:26:42;;;;;;;;;;;;;;;4.79;57.78;100335.66;6113397;23;7075;-76
2022/04/02 04:29:08;;;;;;;;;;;;;;;4.80;57.66;100339.09;6113503;23;7115;-76
2022/04/02 04:31:34;;;;;;;;;;;;;;;4.80;57.62;100342.50;6111723;23;7005;-76
2022/04/02 04:34:00;;;;;;;;;;;;;;;4.80;57.83;100344.16;6112507;23;6922;-76
2022/04/02 04:36:25;;;;;;;;;;;;;;;4.80;58.19;100345.03;6111405;23;6855;-75
2022/04/02 04:38:51;;;;;;;;;;;;;;;4.82;57.58;100342.59;6113187;23;6770;-76
2022/04/02 04:41:18;;;;;;;;;;;;;;;4.84;57.08;100354.66;6112767;23;7183;-76
2022/04/02 04:43:48;;;;;;;;;;;;;;;4.85;57.95;100347.91;6110342;23;6942;-75
2022/04/02 04:46:17;;;;;;;;;;;;;;;4.85;57.63;100350.44;6111654;23;7006;-75
2022/04/02 04:48:44;;;;;;;;;;;;;;;4.85;56.85;100353.88;6111735;23;6940;-75
2022/04/02 04:51:12;;;;;;;;;;;;;;;4.86;57.06;100367.44;6087293;23;6989;-75
2022/04/02 04:53:38;;;;;;;;;;;;;;;4.85;57.04;100364.03;6111166;23;6993;-75
2022/04/02 04:56:04;;;;;;;;;;;;;;;4.86;57.34;100365.78;6111349;23;6946;-75
2022/04/02 04:58:30;;;;;;;;;;;;;;;4.88;56.36;100367.56;6112397;23;7177;-76
2022/04/02 05:00:57;;;;;;;;;;;;;;;4.89;56.41;100372.75;6112041;23;6948;-76
2022/04/02 05:03:24;;;;;;;;;;;;;;;4.91;55.97;100380.47;6111027;23;6935;-76
2022/04/02 05:05:52;;;;;;;;;;;;;;;4.90;56.08;100376.16;6110618;23;7011;-76
2022/04/02 05:08:21;;;;;;;;;;;;;;;4.91;55.70;100383.00;6112603;23;6783;-76
2022/04/02 05:10:48;;;;;;;;;;;;;;;4.93;55.38;100386.56;6111700;23;6786;-76
2022/04/02 05:13:14;;;;;;;;;;;;;;;4.94;55.25;100385.78;6109785;23;6962;-76
2022/04/02 05:15:42;;;;;;;;;;;;;;;4.95;55.89;100395.16;6110878;23;6978;-76
2022/04/02 05:18:09;;;;;;;;;;;;;;;4.97;55.62;100397.03;6111827;23;7321;-76
2022/04/02 05:20:36;;;;;;;;;;;;;;;4.97;54.77;100389.41;6112524;23;6771;-76
2022/04/02 05:23:02;;;;;;;;;;;;;;;4.98;54.50;100397.91;6109986;23;6778;-76
2022/04/02 05:25:28;;;;;;;;;;;;;;;4.97;54.77;100403.75;6133890;23;6956;-76
2022/04/02 05:27:54;;;;;;;;;;;;;;;4.97;54.63;100394.50;6110969;23;6846;-76
2022/04/02 05:30:21;;;;;;;;;;;;;;;4.96;53.80;100407.94;6138996;23;6851;-76
2022/04/02 05:32:46;;;;;;;;;;;;;;;4.96;54.10;100407.09;6114540;23;7160;-76
2022/04/02 05:35:12;;;;;;;;;;;;;;;4.95;53.82;100410.41;6112989;23;6786;-75
2022/04/02 05:37:45;;;;;;;;;;;;;;;4.95;53.97;100408.72;6112598;23;6910;-75
2022/04/02 05:40:12;;;;;;;;;;;;;;;4.96;54.34;100417.25;6111832;23;6955;-76
2022/04/02 05:42:39;;;;;;;;;;;;;;;4.97;54.12;100419.00;6113534;23;6791;-76
2022/04/02 05:45:05;;;;;;;;;;;;;;;4.99;54.13;100419.97;6116672;23;6790;-76
2022/04/02 05:47:49;;;;;;;;;;;;;;;5.02;54.53;100421.88;6116696;23;7051;-76
2022/04/02 05:50:17;;;;;;;;;;;;;;;5.04;53.91;100427.94;6115622;23;6974;-76
2022/04/02 05:52:43;;;;;;;;;;;;;;;5.05;54.30;100427.16;6115370;23;6778;-76
2022/04/02 05:55:11;;;;;;;;;;;;;;;5.09;53.85;100432.56;6087977;23;6925;-76
2022/04/02 05:57:43;;;;;;;;;;;;;;;5.12;54.28;100439.53;6090937;23;6972;-76
2022/04/02 06:00:12;;;;;;;;;;;;;;;5.14;53.46;100438.88;6115780;23;7860;-76
2022/04/02 06:02:40;;;;;;;;;;;;;;;5.19;53.27;100449.34;6115866;23;6787;-76
2022/04/02 06:05:08;;;;;;;;;;;;;;;5.21;53.57;100444.34;6132600;23;7208;-76
2022/04/02 06:07:37;;;;;;;;;;;;;;;5.23;52.92;100453.88;6114745;23;6779;-76
2022/04/02 06:10:05;;;;;;;;;;;;;;;5.26;53.26;100456.63;6114102;23;6779;-76
2022/04/02 06:12:31;;;;;;;;;;;;;;;5.28;52.87;100461.81;6115496;23;7185;-76
2022/04/02 06:14:58;;;;;;;;;;;;;;;5.32;52.70;100460.38;6089190;23;6851;-76
2022/04/02 06:17:24;;;;;;;;;;;;;;;5.34;53.41;100456.28;6114339;23;6783;-76
2022/04/02 06:19:51;;;;;;;;;;;;;;;5.37;52.96;100454.84;6112823;23;6871;-76
2022/04/02 06:22:17;;;;;;;;;;;;;;;5.40;53.58;100457.56;6113272;23;8019;-76
2022/04/02 06:24:42;;;;;;;;;;;;;;;5.45;53.18;100459.56;6112284;23;6987;-76
2022/04/02 06:27:08;;;;;;;;;;;;;;;5.48;53.17;100468.31;6112256;23;6950;-76
2022/04/02 06:29:34;;;;;;;;;;;;;;;5.51;53.20;100465.09;6087954;23;7533;-76
2022/04/02 06:32:00;;;;;;;;;;;;;;;5.54;53.11;100470.38;6111070;23;6943;-76
2022/04/02 06:34:25;;;;;;;;;;;;;;;5.57;53.07;100480.75;6113342;23;7067;-76
2022/04/02 06:36:51;;;;;;;;;;;;;;;5.60;53.08;100475.00;6114835;23;6785;-77
2022/04/02 06:39:17;;;;;;;;;;;;;;;5.65;53.18;100477.09;6113049;23;6950;-76
2022/04/02 06:41:43;;;;;;;;;;;;;;;5.68;52.83;100479.84;6086258;23;7091;-76
2022/04/02 06:44:09;;;;;;;;;;;;;;;5.70;52.66;100480.84;6110021;23;7063;-76
2022/04/02 06:46:37;;;;;;;;;;;;;;;5.75;52.84;100486.25;6109487;23;6947;-76
2022/04/02 06:49:04;;;;;;;;;;;;;;;5.77;52.52;100493.97;6111064;23;6782;-76
2022/04/02 06:51:29;;;;;;;;;;;;;;;5.78;52.44;100490.63;6109258;23;6790;-76
2022/04/02 06:53:55;;;;;;;;;;;;;;;5.80;52.38;100492.50;6086017;23;6973;-76
2022/04/02 06:56:21;;;;;;;;;;;;;;;5.84;52.06;100496.16;6084417;23;7085;-77
2022/04/02 06:58:47;;;;;;;;;;;;;;;5.85;52.10;100503.00;6110985;23;7078;-76
2022/04/02 07:01:12;;;;;;;;;;;;;;;5.86;51.93;100509.84;6112190;23;6771;-77
2022/04/02 07:03:38;;;;;;;;;;;;;;;5.86;51.37;100517.50;6111923;23;6841;-76
2022/04/02 07:06:04;;;;;;;;;;;;;;;5.86;51.32;100520.03;6087695;23;6931;-76
2022/04/02 07:08:30;;;;;;;;;;;;;;;5.84;50.87;100513.97;6087463;23;6989;-76
2022/04/02 07:10:57;;;;;;;;;;;;;;;5.80;51.33;100525.59;6112675;23;7180;-76
2022/04/02 07:13:24;;;;;;;;;;;;;;;5.80;51.42;100534.91;6110819;23;7302;-76
2022/04/02 07:15:50;;;;;;;;;;;;;;;5.79;51.33;100526.38;6113388;23;7137;-76
2022/04/02 07:18:16;;;;;;;;;;;;;;;5.80;51.24;100532.34;6086063;23;6775;-76
2022/04/02 07:20:42;;;;;;;;;;;;;;;5.83;51.31;100540.19;6112718;23;6975;-77
2022/04/02 07:23:09;;;;;;;;;;;;;;;5.84;51.38;100526.69;6110475;23;7022;-77
2022/04/02 07:25:40;;;;;;;;;;;;;;;5.86;51.29;100527.66;6112768;23;6867;-77
2022/04/02 07:28:08;;;;;;;;;;;;;;;5.89;51.29;100533.00;6088766;23;6987;-77
2022/04/02 07:30:37;;;;;;;;;;;;;;;5.94;51.04;100533.28;6086519;23;6783;-77
2022/04/02 07:33:03;;;;;;;;;;;;;;;5.98;50.80;100536.13;6109218;23;7148;-78
2022/04/02 07:35:38;;;;;;;;;;;;;;;6.03;50.76;100539.03;6113606;23;6856;-80
2022/04/02 07:38:36;;;;;;;;;;;;;;;6.10;50.95;100537.81;6090130;23;6968;-77
2022/04/02 07:41:13;;;;;;;;;;;;;;;6.15;51.02;100545.75;6077675;23;6931;-79
2022/04/02 07:44:02;;;;;;;;;;;;;;;6.22;50.36;100545.38;6117272;23;6953;-79
2022/04/02 07:46:33;;;;;;;;;;;;;;;6.25;50.38;100554.09;6114500;23;8050;-80
2022/04/02 07:49:03;;;;;;;;;;;;;;;6.31;50.05;100553.63;6090432;23;6778;-79
2022/04/02 07:51:29;;;;;;;;;;;;;;;6.35;49.96;100553.06;6111751;23;6861;-79
2022/04/02 07:54:02;;;;;;;;;;;;;;;6.41;50.20;100564.44;6088338;23;6782;-76
2022/04/02 07:56:37;;;;;;;;;;;;;;;6.46;50.04;100558.88;6109878;23;6866;-76
2022/04/02 07:59:42;;;;;;;;;;;;;;;6.52;50.28;100569.47;6087260;23;7066;-76
2022/04/02 08:05:05;;;;;;;;;;;;;;;6.65;50.11;100570.28;6110202;23;6802;-77
2022/04/02 08:07:36;;;;;;;;;;;;;;;6.70;49.49;100568.03;6134754;23;7364;-77
2022/04/02 08:10:07;;;;;;;;;;;;;;;6.74;49.63;100573.44;6109159;23;7098;-77
2022/04/02 08:12:39;;;;;;;;;;;;;;;6.76;49.30;100560.81;6078339;23;6859;-77
2022/04/02 08:15:10;;;;;;;;;;;;;;;6.76;48.58;100566.81;6104171;23;7023;-77
2022/04/02 08:17:41;;;;;;;;;;;;;;;6.76;49.07;100571.91;6087102;23;6786;-77
2022/04/02 08:20:08;;;;;;;;;;;;;;;6.77;48.83;100566.03;6112456;23;7221;-77
2022/04/02 08:22:35;;;;;;;;;;;;;;;6.80;49.24;100580.59;6110086;23;7067;-77
2022/04/02 08:25:01;;;;;;;;;;;;;;;6.86;48.68;100570.84;6113416;23;8071;-76
2022/04/02 08:27:38;;;;;;;;;;;;;;;6.93;48.84;100575.56;6114419;23;7176;-77
2022/04/02 08:30:16;;;;;;;;;;;;;;;6.97;48.64;100576.66;6112111;23;6975;-76
2022/04/02 08:33:15;;;;;;;;;;;;;;;6.96;48.22;100574.88;6110226;23;7969;-76
2022/04/02 08:35:57;;;;;;;;;;;;;;;6.93;48.28;100580.66;6087971;23;7053;-76
2022/04/02 08:38:42;;;;;;;;;;;;;;;6.98;48.64;100585.16;6112539;23;7347;-76
2022/04/02 08:41:38;;;;;;;;;;;;;;;7.03;48.58;100586.34;6113955;23;6790;-76
2022/04/02 08:44:43;;;;;;;;;;;;;;;7.11;48.27;100584.28;6115251;23;6875;-77
2022/04/02 08:47:50;;;;;;;;;;;;;;;7.20;48.16;100590.00;6107049;23;6794;-76
2022/04/02 08:50:17;;;;;;;;;;;;;;;7.25;47.80;100587.75;6114007;23;6964;-76
2022/04/02 08:52:52;;;;;;;;;;;;;;;7.29;48.28;100598.22;6109314;23;7040;-76
2022/04/02 08:55:36;;;;;;;;;;;;;;;7.34;47.69;100599.44;6083398;23;7175;-76
2022/04/02 08:58:18;;;;;;;;;;;;;;;7.34;46.67;100607.06;6085054;23;7231;-77
2022/04/02 09:01:02;;;;;;;;;;;;;;;7.33;47.06;100607.84;6115264;23;7820;-76
2022/04/02 09:03:59;;;;;;;;;;;;;;;7.34;46.98;100609.63;6110618;23;7789;-76
2022/04/02 09:07:08;;;;;;;;;;;;;;;7.36;46.85;100613.16;6113729;23;6969;-76
2022/04/02 09:10:04;;;;;;;;;;;;;;;7.43;47.32;100614.41;6111519;23;7156;-76
2022/04/02 09:12:54;;;;;;;;;;;;;;;7.53;46.87;100612.47;6110251;23;7164;-76
2022/04/02 09:16:01;;;;;;;;;;;;;;;7.68;47.13;100610.88;6105062;23;8798;-76
2022/04/02 09:19:15;;;;;;;;;;;;;;;7.82;46.89;100611.72;6111812;23;6775;-76
2022/04/02 09:22:13;;;;;;;;;;;;;;;7.96;47.06;100621.94;6112655;23;6908;-76
2022/04/02 09:25:48;;;;;;;;;;;;;;;8.03;46.29;100630.06;6114030;23;8402;-77
2022/04/02 09:28:35;;;;;;;;;;;;;;;8.09;45.71;100632.09;6040405;23;6980;-77
2022/04/02 09:31:47;;;;;;;;;;;;;;;8.08;45.84;100632.03;6110685;23;7063;-76
2022/04/02 09:34:40;;;;;;;;;;;;;;;8.02;45.03;100630.84;6111245;23;6783;-77
2022/04/02 09:37:59;;;;;;;;;;;;;;;7.98;44.56;100643.31;6111861;23;6859;-76
2022/04/02 09:40:43;;;;;;;;;;;;;;;7.95;45.16;100638.03;6114222;23;7179;-76
2022/04/02 09:43:37;;;;;;;;;;;;;;;7.94;45.23;100634.59;6112224;23;6932;-77
2022/04/02 09:46:23;;;;;;;;;;;;;;;7.94;44.81;100649.03;6138655;23;6787;-76
2022/04/02 09:49:00;;;;;;;;;;;;;;;7.96;44.32;100639.81;6113020;23;6798;-76
2022/04/02 09:51:34;;;;;;;;;;;;;;;7.98;44.17;100653.53;6110128;23;6779;-76
2022/04/02 09:54:31;;;;;;;;;;;;;;;7.92;43.52;100654.94;6111441;23;6782;-76
2022/04/02 09:57:26;;;;;;;;;;;;;;;7.85;43.23;100655.31;6109065;23;6974;-76
2022/04/02 10:00:06;;;;;;;;;;;;;;;7.83;44.35;100645.81;6110516;23;6870;-76
2022/04/02 10:03:08;;;;;;;;;;;;;;;7.85;44.07;100662.09;6110948;23;6889;-76
2022/04/02 10:05:45;;;;;;;;;;;;;;;7.80;43.29;100666.91;6113328;23;6982;-76
2022/04/02 10:08:35;;;;;;;;;;;;;;;7.79;42.92;100670.22;6134377;23;7032;-76
2022/04/02 10:11:04;;;;;;;;;;;;;;;7.75;42.59;100673.38;6136131;23;7067;-76
2022/04/02 10:13:35;;;;;;;;;;;;;;;7.72;42.80;100657.88;6133590;23;6871;-76
2022/04/02 10:16:05;;;;;;;;;;;;;;;7.66;43.87;100667.69;6088485;23;7825;-76
2022/04/02 10:18:36;;;;;;;;;;;;;;;7.60;43.78;100671.59;6090106;23;6778;-76
2022/04/02 10:21:05;;;;;;;;;;;;;;;7.61;43.97;100675.94;6112414;23;6952;-77
2022/04/02 10:23:36;;;;;;;;;;;;;;;7.64;44.12;100676.16;6112250;23;6778;-77
2022/04/02 10:26:07;;;;;;;;;;;;;;;7.69;43.72;100671.34;6115144;23;6778;-78
2022/04/02 10:28:50;;;;;;;;;;;;;;;7.74;43.84;100671.63;6117520;23;6965;-79
2022/04/02 10:31:37;;;;;;;;;;;;;;;7.81;44.08;100671.22;6118470;23;6782;-79
2022/04/02 10:34:32;;;;;;;;;;;;;;;7.88;44.88;100682.72;6117189;23;6933;-79
2022/04/02 10:37:14;;;;;;;;;;;;;;;7.89;44.28;100684.47;6075532;23;7501;-79
2022/04/02 10:40:03;;;;;;;;;;;;;;;7.85;43.95;100687.59;6091528;23;7158;-78
2022/04/02 10:42:59;;;;;;;;;;;;;;;7.73;44.92;100685.19;6115727;23;7381;-79
2022/04/02 10:45:28;;;;;;;;;;;;;;;7.60;45.54;100692.03;6104641;23;7095;-76
2022/04/02 10:48:11;;;;;;;;;;;;;;;7.53;44.84;100694.09;6115332;23;6791;-79
2022/04/02 10:50:41;;;;;;;;;;;;;;;7.46;45.81;100696.22;6140495;23;6786;-79
2022/04/02 10:53:12;;;;;;;;;;;;;;;7.46;46.37;100695.34;6115322;23;7294;-79
2022/04/02 10:55:58;;;;;;;;;;;;;;;7.47;46.33;100692.03;6113837;23;6986;-78
2022/04/02 10:58:25;;;;;;;;;;;;;;;7.49;45.86;100678.59;6114438;23;7811;-78
2022/04/02 11:00:57;;;;;;;;;;;;;;;7.53;46.19;100683.88;6114733;23;6934;-78
2022/04/02 11:03:40;;;;;;;;;;;;;;;7.57;45.43;100683.28;6114741;23;7896;-76
2022/04/02 11:06:07;;;;;;;;;;;;;;;7.59;46.35;100689.38;6089873;23;6783;-77
2022/04/02 11:08:33;;;;;;;;;;;;;;;7.67;46.13;100697.53;6116336;23;6930;-76
2022/04/02 11:11:19;;;;;;;;;;;;;;;7.77;46.45;100693.13;6088683;23;7201;-77
2022/04/02 11:13:45;;;;;;;;;;;;;;;7.90;45.91;100693.91;6114689;23;6939;-76
2022/04/02 11:16:16;;;;;;;;;;;;;;;8.04;46.32;100687.97;6113717;23;6803;-76
2022/04/02 11:19:53;;;;;;;;;;;;;;;8.36;46.30;100698.44;6112936;23;6786;-76
2022/04/02 11:21:42;;;;;;;;;;;;;;;8.77;46.27;100695.78;6112937;23;6818;-76
2022/04/02 11:24:16;;;;;;;;;;;;;;;9.09;45.37;100707.91;6113303;23;6953;-76
2022/04/02 11:26:48;;;;;;;;;;;;;;;9.14;43.99;100713.31;6113251;23;8447;-76
2022/04/02 11:29:15;;;;;;;;;;;;;;;8.87;44.08;100714.31;6113245;23;6996;-76
2022/04/02 11:31:46;;;;;;;;;;;;;;;8.51;44.58;100716.41;6112731;23;6875;-77
2022/04/02 11:34:19;;;;;;;;;;;;;;;8.23;45.52;100719.78;6112588;23;6855;-76
2022/04/02 11:36:47;;;;;;;;;;;;;;;8.03;46.04;100709.19;6112728;23;6934;-76
2022/04/02 11:39:39;;;;;;;;;;;;;;;7.96;46.56;100711.28;6088609;23;6811;-76
2022/04/02 11:42:12;;;;;;;;;;;;;;;8.03;47.04;100718.53;6113361;23;6953;-76
2022/04/02 11:44:38;;;;;;;;;;;;;;;8.19;47.54;100717.81;6113957;23;6790;-75
2022/04/02 11:47:07;;;;;;;;;;;;;;;8.30;46.95;100715.94;6113032;23;6771;-76
2022/04/02 11:49:40;;;;;;;;;;;;;;;8.49;48.27;100707.75;6115257;23;6782;-76
2022/04/02 11:52:15;;;;;;;;;;;;;;;8.79;47.88;100712.09;6110467;23;7974;-76
2022/04/02 11:54:50;;;;;;;;;;;;;;;9.07;47.82;100723.97;6086668;23;6783;-76
2022/04/02 11:57:18;;;;;;;;;;;;;;;9.23;47.08;100715.53;6106614;23;6956;-76
2022/04/02 12:00:06;;;;;;;;;;;;;;;9.25;46.43;100722.50;6113186;23;6787;-76
2022/04/02 12:02:41;;;;;;;;;;;;;;;9.25;46.78;100729.28;6111946;23;7006;-76
2022/04/02 12:05:13;;;;;;;;;;;;;;;9.36;47.29;100717.09;6111174;23;6886;-77
2022/04/02 12:07:43;;;;;;;;;;;;;;;9.57;47.49;100718.38;6112715;23;6786;-77
2022/04/02 12:10:27;;;;;;;;;;;;;;;9.89;46.70;100720.97;6110821;23;6786;-76
2022/04/02 12:12:58;;;;;;;;;;;;;;;10.05;45.98;100709.03;6109451;23;6803;-77
2022/04/02 12:15:25;;;;;;;;;;;;;;;10.17;45.63;100708.81;6111296;23;6828;-77
2022/04/02 12:17:59;;;;;;;;;;;;;;;10.17;44.65;100713.94;6111405;23;6783;-77
2022/04/02 12:20:39;;;;;;;;;;;;;;;9.77;43.80;100720.28;6112308;23;7144;-77
2022/04/02 12:23:25;;;;;;;;;;;;;;;9.10;44.34;100729.28;6109343;23;7128;-77
2022/04/02 12:25:58;;;;;;;;;;;;;;;8.63;45.18;100731.63;6109884;23;6906;-77
2022/04/02 12:28:25;;;;;;;;;;;;;;;8.31;47.33;100726.25;6111218;23;6822;-77
2022/04/02 12:31:01;;;;;;;;;;;;;;;8.15;46.74;100733.72;6111483;23;6783;-77
2022/04/02 12:33:29;;;;;;;;;;;;;;;8.06;48.34;100737.50;6111899;23;7102;-77
2022/04/02 12:36:03;;;;;;;;;;;;;;;8.05;47.63;100734.81;6111965;23;7207;-77
2022/04/02 12:38:35;;;;;;;;;;;;;;;8.11;48.57;100737.78;6110863;23;6786;-77
2022/04/02 12:41:04;;;;;;;;;;;;;;;8.25;48.83;100747.97;6109820;23;6967;-77
2022/04/02 12:43:39;;;;;;;;;;;;;;;8.41;48.96;100739.59;6085841;23;7084;-77
2022/04/02 12:46:04;;;;;;;;;;;;;;;8.67;49.03;100738.66;6112449;23;6949;-77
2022/04/02 12:48:44;;;;;;;;;;;;;;;9.09;49.67;100732.63;6087186;23;7027;-77
2022/04/02 12:51:18;;;;;;;;;;;;;;;9.58;48.68;100735.47;6110475;23;6986;-77
2022/04/02 12:53:51;;;;;;;;;;;;;;;9.88;47.26;100721.75;6109798;23;6957;-76
2022/04/02 12:56:25;;;;;;;;;;;;;;;10.00;45.94;100739.50;6108139;23;7253;-76
2022/04/02 12:58:53;;;;;;;;;;;;;;;10.06;45.24;100728.69;6109197;23;8353;-76
2022/04/02 13:01:25;;;;;;;;;;;;;;;10.05;45.01;100732.06;6110576;23;7103;-77
2022/04/02 13:04:13;;;;;;;;;;;;;;;10.01;44.83;100736.13;6110134;23;6955;-77
2022/04/02 13:06:44;;;;;;;;;;;;;;;10.06;45.57;100736.38;6111526;23;6786;-77
2022/04/02 13:09:19;;;;;;;;;;;;;;;10.28;45.55;100733.34;6111171;23;6818;-77
2022/04/02 13:12:02;;;;;;;;;;;;;;;10.59;45.54;100727.31;6110037;23;7166;-76
2022/04/02 13:14:42;;;;;;;;;;;;;;;10.80;44.50;100735.28;6108704;23;7005;-76
2022/04/02 13:17:12;;;;;;;;;;;;;;;10.68;43.30;100732.06;6110453;23;7165;-76
2022/04/02 13:22:47;;;;;;;;;;;;;;;10.60;43.37;100735.91;6109955;23;7281;-77
2022/04/02 13:25:25;;;;;;;;;;;;;;;10.75;43.67;100725.59;6110797;23;8079;-77
2022/04/02 13:28:30;;;;;;;;;;;;;;;10.87;42.48;100718.50;6112050;23;6830;-77
2022/04/02 13:31:00;;;;;;;;;;;;;;;10.92;42.02;100721.31;6110281;23;6849;-77